createdAt,value
2023-03-22T00:01:22.248Z,98502.65
2023-03-22T00:03:52.842Z,98495.89
2023-03-22T00:06:21.609Z,98496.23
2023-03-22T00:08:52.199Z,98497.48
2023-03-22T00:11:23.053Z,98496.61
2023-03-22T00:13:53.238Z,98493.17
2023-03-22T00:16:22.749Z,98488.67
2023-03-22T00:18:51.828Z,98486.79
2023-03-22T00:21:21.862Z,98482.80
2023-03-22T00:23:51.136Z,98476.05
2023-03-22T00:26:19.727Z,98476.92
2023-03-22T00:28:49.469Z,98477.98
2023-03-22T00:31:18.099Z,98476.77
2023-03-22T00:33:46.676Z,98474.53
2023-03-22T00:36:15.933Z,98474.02
2023-03-22T00:38:44.820Z,98470.88
2023-03-22T00:41:16.275Z,98469.67
2023-03-22T00:43:47.631Z,98466.73
2023-03-22T00:46:18.183Z,98466.22
2023-03-22T00:48:48.104Z,98460.67
2023-03-22T00:51:17.549Z,98462.95
2023-03-22T00:53:49.978Z,98459.33
2023-03-22T00:56:20.143Z,98459.85
2023-03-22T00:58:57.781Z,98454.67
2023-03-22T01:01:27.237Z,98455.36
2023-03-22T01:03:57.409Z,98451.71
2023-03-22T01:06:26.209Z,98451.02
2023-03-22T01:08:55.823Z,98449.10
2023-03-22T01:11:25.620Z,98441.83
2023-03-22T01:13:55.980Z,98440.96
2023-03-22T01:16:25.457Z,98442.35
2023-03-22T01:18:54.026Z,98438.04
2023-03-22T01:21:22.593Z,98431.45
2023-03-22T01:23:52.949Z,98430.41
2023-03-22T01:26:21.623Z,98428.85
2023-03-22T01:28:50.481Z,98430.59
2023-03-22T01:31:19.860Z,98430.42
2023-03-22T01:33:48.504Z,98428.88
2023-03-22T01:36:17.122Z,98422.29
2023-03-22T01:38:46.621Z,98420.73
2023-03-22T01:41:17.203Z,98417.79
2023-03-22T01:43:46.445Z,98417.10
2023-03-22T01:46:15.812Z,98418.48
2023-03-22T01:48:46.483Z,98414.13
2023-03-22T01:51:21.086Z,98412.73
2023-03-22T01:54:27.504Z,98411.53
2023-03-22T01:56:57.153Z,98411.52
2023-03-22T01:59:33.386Z,98411.54
2023-03-22T02:02:22.685Z,98408.42
2023-03-22T02:04:58.337Z,98407.38
2023-03-22T02:07:32.091Z,98403.73
2023-03-22T02:10:01.804Z,98406.16
2023-03-22T02:12:55.223Z,98406.17
2023-03-22T02:16:34.578Z,98406.17
2023-03-22T02:19:34.699Z,98404.61
2023-03-22T02:22:03.503Z,98406.54
2023-03-22T02:25:06.952Z,98406.19
2023-03-22T02:28:03.822Z,98405.84
2023-03-22T02:30:33.139Z,98405.66
2023-03-22T02:33:20.006Z,98406.35
2023-03-22T02:36:04.322Z,98410.52
2023-03-22T02:39:18.938Z,98408.44
2023-03-22T02:42:05.879Z,98410.17
2023-03-22T02:44:53.832Z,98409.12
2023-03-22T02:47:34.834Z,98410.52
2023-03-22T02:50:14.448Z,98412.25
2023-03-22T02:53:10.326Z,98408.61
2023-03-22T02:55:46.068Z,98412.77
2023-03-22T02:58:20.090Z,98410.52
2023-03-22T03:00:52.481Z,98411.39
2023-03-22T03:03:25.868Z,98421.08
2023-03-22T03:05:58.914Z,98425.94
2023-03-22T03:08:28.984Z,98433.02
2023-03-22T03:10:57.770Z,98433.88
2023-03-22T03:13:26.342Z,98433.36
2023-03-22T03:15:59.353Z,98432.65
2023-03-22T03:18:37.110Z,98436.25
2023-03-22T03:21:18.449Z,98441.28
2023-03-22T03:23:50.272Z,98443.35
2023-03-22T03:26:31.835Z,98440.23
2023-03-22T03:29:13.204Z,98440.23
2023-03-22T03:31:54.036Z,98440.73
2023-03-22T03:34:31.027Z,98441.92
2023-03-22T03:37:08.877Z,98444.02
2023-03-22T03:39:44.482Z,98443.33
2023-03-22T03:42:18.919Z,98441.27
2023-03-22T03:44:48.772Z,98442.69
2023-03-22T03:47:18.954Z,98442.52
2023-03-22T03:49:48.052Z,98441.65
2023-03-22T03:52:16.647Z,98441.98
2023-03-22T03:54:45.993Z,98441.44
2023-03-22T03:57:17.444Z,98439.17
2023-03-22T03:59:46.017Z,98440.58
2023-03-22T04:02:23.185Z,98444.55
2023-03-22T04:04:52.611Z,98441.96
2023-03-22T04:07:21.365Z,98440.23
2023-03-22T04:09:50.546Z,98434.19
2023-03-22T04:12:29.486Z,98426.23
2023-03-22T04:15:19.000Z,98418.45
2023-03-22T04:17:51.543Z,98414.47
2023-03-22T04:20:21.364Z,98415.17
2023-03-22T04:22:50.121Z,98410.65
2023-03-22T04:25:21.172Z,98409.61
2023-03-22T04:27:58.167Z,98412.02
2023-03-22T04:30:27.763Z,98409.95
2023-03-22T04:33:16.053Z,98413.23
2023-03-22T04:36:05.913Z,98417.23
2023-03-22T04:38:39.836Z,98417.75
2023-03-22T04:41:09.774Z,98414.11
2023-03-22T04:43:47.471Z,98412.20
2023-03-22T04:46:18.273Z,98412.03
2023-03-22T04:48:52.350Z,98414.09
2023-03-22T04:51:21.233Z,98410.93
2023-03-22T04:54:13.634Z,98406.21
2023-03-22T04:56:43.383Z,98408.62
2023-03-22T04:59:12.249Z,98407.23
2023-03-22T05:01:43.210Z,98402.55
2023-03-22T05:04:16.890Z,98402.55
2023-03-22T05:06:47.419Z,98403.38
2023-03-22T05:09:23.630Z,98404.06
2023-03-22T05:11:54.207Z,98398.15
2023-03-22T05:14:28.354Z,98395.73
2023-03-22T05:16:58.190Z,98399.20
2023-03-22T05:19:27.887Z,98398.33
2023-03-22T05:21:58.656Z,98395.36
2023-03-22T05:24:39.342Z,98396.90
2023-03-22T05:27:11.249Z,98395.48
2023-03-22T05:29:45.387Z,98397.91
2023-03-22T05:32:25.844Z,98396.52
2023-03-22T05:34:57.208Z,98389.94
2023-03-22T05:37:32.464Z,98395.63
2023-03-22T05:40:01.777Z,98403.23
2023-03-22T05:42:37.483Z,98404.78
2023-03-22T05:45:14.907Z,98402.55
2023-03-22T05:47:45.172Z,98402.92
2023-03-22T05:50:20.160Z,98406.61
2023-03-22T05:52:52.300Z,98411.52
2023-03-22T05:55:35.874Z,98413.34
2023-03-22T05:58:06.324Z,98416.34
2023-03-22T06:00:37.486Z,98421.76
2023-03-22T06:03:28.668Z,98423.22
2023-03-22T06:06:02.068Z,98424.11
2023-03-22T06:08:51.122Z,98419.07
2023-03-22T06:11:20.361Z,98420.33
2023-03-22T06:13:49.079Z,98421.44
2023-03-22T06:16:19.582Z,98426.58
2023-03-22T06:18:48.652Z,98427.82
2023-03-22T06:21:17.359Z,98431.20
2023-03-22T06:23:47.016Z,98430.63
2023-03-22T06:26:16.241Z,98440.31
2023-03-22T06:28:45.828Z,98438.40
2023-03-22T06:31:14.993Z,98436.05
2023-03-22T06:33:57.333Z,98437.92
2023-03-22T06:36:34.690Z,98437.27
2023-03-22T06:39:35.908Z,98435.98
2023-03-22T06:42:05.207Z,98437.70
2023-03-22T06:44:34.809Z,98442.92
2023-03-22T06:47:16.268Z,98441.98
2023-03-22T06:50:05.652Z,98442.61
2023-03-22T06:53:01.310Z,98444.71
2023-03-22T06:55:33.628Z,98440.98
2023-03-22T06:58:03.056Z,98440.02
2023-03-22T07:00:32.713Z,98440.96
2023-03-22T07:03:01.478Z,98441.46
2023-03-22T07:05:38.213Z,98442.98
2023-03-22T07:08:07.419Z,98445.98
2023-03-22T07:10:37.689Z,98445.58
2023-03-22T07:13:07.140Z,98446.09
2023-03-22T07:15:36.841Z,98447.11
2023-03-22T07:18:10.982Z,98448.76
2023-03-22T07:20:41.999Z,98450.83
2023-03-22T07:23:11.212Z,98452.08
2023-03-22T07:25:48.487Z,98449.27
2023-03-22T07:28:26.099Z,98449.91
2023-03-22T07:31:07.994Z,98451.09
2023-03-22T07:33:44.898Z,98450.77
2023-03-22T07:36:13.944Z,98444.03
2023-03-22T07:38:42.470Z,98446.79
2023-03-22T07:41:15.316Z,98443.39
2023-03-22T07:44:17.275Z,98440.00
2023-03-22T07:46:53.789Z,98445.18
2023-03-22T07:49:25.566Z,98446.66
2023-03-22T07:52:12.784Z,98449.20
2023-03-22T07:54:43.756Z,98444.90
2023-03-22T07:57:12.550Z,98440.04
2023-03-22T07:59:57.169Z,98435.25
2023-03-22T08:02:28.676Z,98437.30
2023-03-22T08:04:57.997Z,98433.16
2023-03-22T08:07:38.647Z,98433.29
2023-03-22T08:10:08.688Z,98431.92
2023-03-22T08:12:37.994Z,98434.80
2023-03-22T08:15:17.711Z,98432.27
2023-03-22T08:17:46.599Z,98430.53
2023-03-22T08:20:20.165Z,98426.67
2023-03-22T08:22:54.873Z,98427.11
2023-03-22T08:25:30.560Z,98423.03
2023-03-22T08:28:07.734Z,98426.46
2023-03-22T08:30:38.949Z,98423.12
2023-03-22T08:33:08.422Z,98423.04
2023-03-22T08:35:37.219Z,98423.52
2023-03-22T08:38:06.096Z,98419.86
2023-03-22T08:40:42.443Z,98420.52
2023-03-22T08:43:11.954Z,98418.15
2023-03-22T08:45:40.972Z,98419.27
2023-03-22T08:48:13.512Z,98416.65
2023-03-22T08:51:09.279Z,98415.01
2023-03-22T08:53:48.246Z,98419.11
2023-03-22T08:56:38.491Z,98414.41
2023-03-22T08:59:29.691Z,98410.61
2023-03-22T09:02:18.111Z,98410.52
2023-03-22T09:04:48.684Z,98407.67
2023-03-22T09:07:34.256Z,98405.44
2023-03-22T09:10:32.023Z,98403.75
2023-03-22T09:13:07.601Z,98405.36
2023-03-22T09:15:37.152Z,98404.60
2023-03-22T09:18:16.662Z,98402.84
2023-03-22T09:20:46.340Z,98398.02
2023-03-22T09:23:17.578Z,98390.86
2023-03-22T09:26:01.140Z,98389.27
2023-03-22T09:28:30.898Z,98392.08
2023-03-22T09:31:09.139Z,98392.17
2023-03-22T09:33:40.680Z,98391.16
2023-03-22T09:36:12.723Z,98386.89
2023-03-22T09:38:42.394Z,98389.65
2023-03-22T09:41:46.701Z,98388.27
2023-03-22T09:44:27.347Z,98385.34
2023-03-22T09:47:00.424Z,98384.48
2023-03-22T09:49:52.672Z,98384.05
2023-03-22T09:52:22.616Z,98380.43
2023-03-22T09:54:53.194Z,98381.63
2023-03-22T09:57:32.820Z,98378.94
2023-03-22T10:00:27.778Z,98374.41
2023-03-22T10:03:35.151Z,98371.57
2023-03-22T10:06:14.580Z,98367.85
2023-03-22T10:09:14.412Z,98365.73
2023-03-22T10:11:53.747Z,98365.09
2023-03-22T10:14:39.401Z,98367.33
2023-03-22T10:17:24.202Z,98366.52
2023-03-22T10:19:59.263Z,98361.21
2023-03-22T10:22:34.032Z,98360.55
2023-03-22T10:25:03.845Z,98359.87
2023-03-22T10:27:42.248Z,98355.91
2023-03-22T10:30:21.961Z,98359.50
2023-03-22T10:32:58.433Z,98360.28
2023-03-22T10:35:28.278Z,98355.67
2023-03-22T10:38:01.994Z,98351.52
2023-03-22T10:40:34.238Z,98346.65
2023-03-22T10:43:44.707Z,98341.73
2023-03-22T10:46:21.610Z,98340.16
2023-03-22T10:48:54.222Z,98342.48
2023-03-22T10:51:36.432Z,98339.20
2023-03-22T10:54:06.409Z,98334.96
2023-03-22T10:56:35.569Z,98335.82
2023-03-22T10:59:06.234Z,98331.03
2023-03-22T11:01:41.918Z,98324.31
2023-03-22T11:04:14.181Z,98321.04
2023-03-22T11:06:56.066Z,98320.73
2023-03-22T11:09:25.473Z,98319.98
2023-03-22T11:11:58.811Z,98315.10
2023-03-22T11:14:32.237Z,98314.91
2023-03-22T11:17:08.112Z,98314.52
2023-03-22T11:19:50.876Z,98310.88
2023-03-22T11:22:25.664Z,98305.93
2023-03-22T11:24:56.789Z,98301.42
2023-03-22T11:27:31.622Z,98297.07
2023-03-22T11:30:28.939Z,98288.14
2023-03-22T11:33:19.493Z,98287.64
2023-03-22T11:35:55.424Z,98285.95
2023-03-22T11:38:30.335Z,98280.16
2023-03-22T11:41:04.973Z,98279.89
2023-03-22T11:43:44.219Z,98277.20
2023-03-22T11:46:13.230Z,98273.48
2023-03-22T11:48:43.485Z,98274.85
2023-03-22T11:51:21.154Z,98274.80
2023-03-22T11:53:50.275Z,98272.94
2023-03-22T11:56:30.161Z,98275.61
2023-03-22T11:59:08.588Z,98275.57
2023-03-22T12:01:51.333Z,98271.64
2023-03-22T12:04:28.210Z,98271.36
2023-03-22T12:07:01.435Z,98269.45
2023-03-22T12:09:39.388Z,98266.45
2023-03-22T12:12:16.354Z,98264.66
2023-03-22T12:14:54.761Z,98261.69
2023-03-22T12:18:08.000Z,98258.45
2023-03-22T12:20:56.181Z,98256.08
2023-03-22T12:23:28.312Z,98253.73
2023-03-22T12:26:06.600Z,98253.60
2023-03-22T12:28:45.880Z,98254.60
2023-03-22T12:31:22.222Z,98255.14
2023-03-22T12:33:55.271Z,98255.21
2023-03-22T12:36:35.787Z,98251.39
2023-03-22T12:39:07.698Z,98249.74
2023-03-22T12:41:40.404Z,98241.15
2023-03-22T12:44:12.486Z,98232.21
2023-03-22T12:46:57.568Z,98229.92
2023-03-22T12:49:50.345Z,98231.73
2023-03-22T12:52:44.650Z,98232.65
2023-03-22T12:55:31.981Z,98232.05
2023-03-22T12:58:00.919Z,98232.17
2023-03-22T13:00:41.559Z,98226.61
2023-03-22T13:03:17.854Z,98225.59
2023-03-22T13:05:50.736Z,98224.23
2023-03-22T13:08:24.950Z,98224.70
2023-03-22T13:11:04.345Z,98225.23
2023-03-22T13:13:40.901Z,98225.59
2023-03-22T13:16:09.593Z,98222.79
2023-03-22T13:18:57.581Z,98221.52
2023-03-22T13:21:30.541Z,98221.09
2023-03-22T13:24:32.613Z,98220.21
2023-03-22T13:27:01.883Z,98216.00
2023-03-22T13:29:40.143Z,98215.05
2023-03-22T13:32:33.877Z,98215.88
2023-03-22T13:35:02.656Z,98215.21
2023-03-22T13:37:38.958Z,98210.66
2023-03-22T13:40:30.421Z,98203.23
2023-03-22T13:43:13.045Z,98196.76
2023-03-22T13:46:09.790Z,98184.61
2023-03-22T13:48:44.582Z,98187.38
2023-03-22T13:51:29.979Z,98185.71
2023-03-22T13:54:17.427Z,98180.01
2023-03-22T13:57:04.622Z,98177.04
2023-03-22T14:00:10.465Z,98172.82
2023-03-22T14:02:43.032Z,98173.96
2023-03-22T14:05:18.449Z,98173.41
2023-03-22T14:08:06.245Z,98171.92
2023-03-22T14:10:42.324Z,98168.29
2023-03-22T14:13:28.806Z,98168.58
2023-03-22T14:16:05.057Z,98161.23
2023-03-22T14:18:37.464Z,98164.44
2023-03-22T14:21:09.941Z,98166.88
